Hovedside
METAR-TAF:

METAR-TAF

Lufthavner :

Natal, Rio Grande do Norte, Brasil

breddegrad: 05-46-05S, lengdegrad: 035-22-34W, høyde over havet: 88 m

Gjeldene værobservasjon

Denne rapporten ble laget for 54 minutter siden, klokken 17:00 UTC
Vind 12 kt fra Sørøst
Temperatur 30°C
Luftfuktighet 59%
Trykk 1010 hPa
Sikt 10 km eller mer
Brutte skyer i en høyde av 3600 ft

METAR: SBSG 211700Z 13012KT 9999 BKN036 30/21 Q1010

Tid: 14:54 (17:54 UTC)

Varsel

Denne rapporten ble laget for 2 timer og 54 minutter siden, klokken 15:00 UTC
Varsel gyldig fra 21. klokken 18 UTC til 22. klokken 18 UTC
Vind 13 kt fra Sør-sørøst
Sikt 10 km eller mer
Spredte skyer i en høyde av 2500 ft
Blir
fra 21. klokken 21 UTC til 21. klokken 22 UTC
Vind 5 kt fra Sør-sørøst
Blir
fra 22. klokken 09 UTC til 22. klokken 11 UTC
Vind 14 kt fra Sørøst

TAF: SBSG 211500Z 2118/2218 16013KT 9999 SCT025 TN22/2208Z TX30/2214Z BECMG 2121/2122 16005KT BECMG 2209/2211 14014KT RMK PEA

Værobservasjoner og værvarsel for over 4000 flyplasser (METAR- og TAF-rapporter).

Tilgjengelige stasjoner er representert av de røde og gule prikkene på kartet.

Hold musepekeren over prikken for å se navnet på stasjonen.

Klikk så for å se værobservasjoner og -varsler.

For å forandre kartet kan du klikke på den grønne knappen med svart kryss for å zoome inn, på den grønne knappen med strek for å zoome ut, eller på de grønne pilene for å se tilstøtende kart.


METAR-TAF: